KTOA/TOA METAR and TAF weather

Enter ICAO airport designator
Station Type Date Time Source
KTOA METAR 2019/05/19 19:49 UTC NOAA

KTOA 191949Z VRB05KT 10SM SCT015 BKN022 17/11 A2991


Station Type Date Time Source
KTOA Decoded METAR 2019/05/19 19:49 UTC NOAA

Torrance, Zamperini Field Airport, CA, United States (KTOA) 33-48N 118-20W
May 19, 2019 - 03:49 PM EDT / 2019.05.19 1949 UTC
Wind: Variable at 6 MPH (5 KT):0
Visibility: 10 mile(s):0
Sky conditions: mostly cloudy
Temperature: 62 F (17 C)
Dew Point: 51 F (11 C)
Relative Humidity: 67%
Pressure (altimeter): 29.91 in. Hg (1012 hPa)
ob: KTOA 191949Z VRB05KT 10SM SCT015 BKN022 17/11 A2991
cycle: 20

Station Type Date Time Source
KTOA TAF UTC NOAA

Error!

Example: see airport list